Time;durP1;ratioP1;P1;durP2;ratioP2;P2;SDS_P1;SDS_P2;PMS_P1;PMS_P2;Temp;Humidity;BMP_temperature;BMP_pressure;BME280_temperature;BME280_humidity;BME280_pressure;Samples;Min_cycle;Max_cycle;Signal;HPM_P1;HPM_P2
2023/06/04 00:00:49;;;;;;;4.80;4.50;;;14.80;76.60;;;;;;4954149;29;20256;-60
2023/06/04 00:03:15;;;;;;;4.73;4.43;;;14.80;77.20;;;;;;4954014;28;20175;-60
2023/06/04 00:05:40;;;;;;;5.17;4.70;;;14.70;77.00;;;;;;4954284;29;20418;-59
2023/06/04 00:08:06;;;;;;;5.03;4.63;;;14.70;77.90;;;;;;4954485;29;20224;-60
2023/06/04 00:10:33;;;;;;;4.70;4.40;;;14.60;78.60;;;;;;4954496;29;20211;-60
2023/06/04 00:12:59;;;;;;;4.80;4.50;;;14.60;79.40;;;;;;4953893;28;20233;-60
2023/06/04 00:15:25;;;;;;;4.97;4.57;;;14.50;79.70;;;;;;4954572;28;20440;-60
2023/06/04 00:17:52;;;;;;;5.37;4.97;;;14.50;80.60;;;;;;4953183;28;20436;-60
2023/06/04 00:20:18;;;;;;;5.00;4.60;;;14.40;80.40;;;;;;4954219;29;20417;-60
2023/06/04 00:22:43;;;;;;;4.70;4.40;;;14.40;81.40;;;;;;4953433;29;20506;-59
2023/06/04 00:25:10;;;;;;;5.60;5.13;;;14.30;81.50;;;;;;4954579;29;20958;-60
2023/06/04 00:27:35;;;;;;;4.90;4.60;;;14.30;82.00;;;;;;4954067;29;20173;-60
2023/06/04 00:30:01;;;;;;;5.70;5.30;;;14.30;83.20;;;;;;4953678;28;20465;-60
2023/06/04 00:32:27;;;;;;;5.00;4.60;;;14.20;83.60;;;;;;4954134;29;20930;-60
2023/06/04 00:34:55;;;;;;;4.93;4.53;;;14.20;83.90;;;;;;4953900;29;20504;-60
2023/06/04 00:37:24;;;;;;;6.17;5.60;;;14.10;84.90;;;;;;4954349;28;20180;-60
2023/06/04 00:39:51;;;;;;;5.20;4.80;;;14.10;84.70;;;;;;4943886;28;20457;-60
2023/06/04 00:42:17;;;;;;;5.10;4.70;;;13.90;84.80;;;;;;4946632;29;20433;-60
2023/06/04 00:44:45;;;;;;;4.60;4.30;;;13.90;86.50;;;;;;4951907;29;20484;-60
2023/06/04 00:47:15;;;;;;;5.30;4.90;;;14.00;89.70;;;;;;4951627;29;20995;-60
2023/06/04 00:49:41;;;;;;;4.73;4.27;;;14.00;88.90;;;;;;4932168;29;20483;-60
2023/06/04 00:52:13;;;;;;;5.10;4.60;;;14.00;88.70;;;;;;4950187;29;20523;-60
2023/06/04 00:54:40;;;;;;;4.67;4.37;;;14.00;89.00;;;;;;4943624;28;20423;-59
2023/06/04 00:57:07;;;;;;;4.93;4.57;;;14.00;89.50;;;;;;4935158;29;20456;-60
2023/06/04 00:59:33;;;;;;;5.10;4.70;;;13.90;89.00;;;;;;4951615;29;20435;-60
2023/06/04 01:02:10;;;;;;;5.60;5.20;;;13.90;89.70;;;;;;4952269;28;20537;-60
2023/06/04 01:04:43;;;;;;;5.13;4.73;;;13.90;91.00;;;;;;4953346;28;20430;-60
2023/06/04 01:07:09;;;;;;;5.43;5.03;;;13.90;91.60;;;;;;4943898;29;20811;-60
2023/06/04 01:09:37;;;;;;;5.67;5.17;;;13.90;90.50;;;;;;4950253;29;20472;-60
2023/06/04 01:12:07;;;;;;;5.10;4.80;;;13.90;90.40;;;;;;4952606;29;20441;-59
2023/06/04 01:14:36;;;;;;;4.67;4.37;;;13.90;90.30;;;;;;4955546;28;20521;-60
2023/06/04 01:17:23;;;;;;;5.07;4.67;;;13.90;90.40;;;;;;4953525;29;20547;-60
2023/06/04 01:20:04;;;;;;;4.80;4.50;;;13.90;90.40;;;;;;4954235;29;20946;-59
2023/06/04 01:22:49;;;;;;;4.90;4.50;;;13.80;90.30;;;;;;4947248;28;20433;-60
2023/06/04 01:25:31;;;;;;;4.97;4.57;;;13.70;89.60;;;;;;4953777;29;20442;-60
2023/06/04 01:27:57;;;;;;;5.27;4.87;;;13.50;90.10;;;;;;4956315;29;20432;-59
2023/06/04 01:30:26;;;;;;;5.17;4.77;;;13.40;91.00;;;;;;4942622;28;20468;-60
2023/06/04 01:32:54;;;;;;;4.80;4.40;;;13.40;91.40;;;;;;4954507;29;20729;-60
2023/06/04 01:35:21;;;;;;;4.67;4.37;;;13.50;91.50;;;;;;4957125;28;20471;-60
2023/06/04 01:37:47;;;;;;;5.10;4.60;;;13.50;91.70;;;;;;4956673;28;20773;-59
2023/06/04 01:40:14;;;;;;;4.50;4.20;;;13.50;91.50;;;;;;4957306;28;20453;-60
2023/06/04 01:42:40;;;;;;;4.60;4.30;;;13.50;91.20;;;;;;4956754;29;20417;-59
2023/06/04 01:45:06;;;;;;;4.83;4.43;;;13.50;91.00;;;;;;4955792;29;20408;-60
2023/06/04 01:47:33;;;;;;;5.10;4.80;;;13.50;91.00;;;;;;4956511;29;20440;-60
2023/06/04 01:49:59;;;;;;;4.60;4.20;;;13.50;91.30;;;;;;4956412;28;20459;-59
2023/06/04 01:52:25;;;;;;;4.33;4.13;;;13.50;91.50;;;;;;4957051;28;20417;-60
2023/06/04 01:54:52;;;;;;;4.70;4.40;;;13.40;91.80;;;;;;4956156;29;20181;-59
2023/06/04 01:57:21;;;;;;;4.93;4.57;;;13.40;91.80;;;;;;4957385;28;20184;-60
2023/06/04 01:59:48;;;;;;;4.50;4.20;;;13.30;92.00;;;;;;4956521;29;20868;-59
2023/06/04 02:02:14;;;;;;;4.60;4.30;;;13.30;92.50;;;;;;4957062;29;20432;-60
2023/06/04 02:04:41;;;;;;;4.63;4.33;;;13.30;93.00;;;;;;4957193;29;20420;-60
2023/06/04 02:07:10;;;;;;;4.87;4.50;;;13.30;93.10;;;;;;4956430;28;20495;-60
2023/06/04 02:09:36;;;;;;;5.73;3.87;;;13.30;92.80;;;;;;4956772;29;20472;-60
2023/06/04 02:12:03;;;;;;;5.00;4.50;;;13.20;92.80;;;;;;4956101;29;20456;-60
2023/06/04 02:14:29;;;;;;;4.57;4.17;;;13.20;92.70;;;;;;4956988;29;20601;-60
2023/06/04 02:16:57;;;;;;;4.77;4.33;;;13.10;93.20;;;;;;4955274;29;20799;-60
2023/06/04 02:19:26;;;;;;;5.33;4.93;;;13.20;93.60;;;;;;4956686;29;20415;-60
2023/06/04 02:21:55;;;;;;;5.10;4.80;;;13.10;93.70;;;;;;4955917;28;20416;-60
2023/06/04 02:24:21;;;;;;;4.33;4.00;;;13.00;93.90;;;;;;4956340;29;20971;-60
2023/06/04 02:26:47;;;;;;;5.60;4.47;;;12.90;93.40;;;;;;4950561;28;20799;-59
2023/06/04 02:29:13;;;;;;;5.90;5.07;;;12.70;93.70;;;;;;4936084;29;20468;-60
2023/06/04 02:31:38;;;;;;;4.70;4.30;;;12.60;94.30;;;;;;4937247;29;20184;-60
2023/06/04 02:34:04;;;;;;;5.03;4.63;;;12.70;94.70;;;;;;4936519;29;20239;-60
2023/06/04 02:36:30;;;;;;;5.90;5.30;;;12.70;95.00;;;;;;4937302;29;20173;-60
2023/06/04 02:38:56;;;;;;;5.00;4.60;;;12.70;94.80;;;;;;4936240;29;20288;-60
2023/06/04 02:41:23;;;;;;;4.57;4.27;;;12.70;94.60;;;;;;4937734;29;20527;-60
2023/06/04 02:43:48;;;;;;;4.70;4.40;;;12.70;94.40;;;;;;4954853;29;20231;-59
2023/06/04 02:46:14;;;;;;;4.87;4.57;;;12.70;94.40;;;;;;4955462;29;20439;-60
2023/06/04 02:48:40;;;;;;;5.70;4.57;;;12.80;94.50;;;;;;4956116;28;20269;-60
2023/06/04 02:51:12;;;;;;;4.80;4.50;;;12.70;94.40;;;;;;4955275;29;20494;-60
2023/06/04 02:53:38;;;;;;;5.20;4.80;;;12.70;94.60;;;;;;4956272;28;20160;-60
2023/06/04 02:56:04;;;;;;;5.07;4.70;;;12.70;94.90;;;;;;4955273;29;20506;-59
2023/06/04 02:58:31;;;;;;;5.10;4.70;;;12.70;95.00;;;;;;4955530;29;20207;-60
2023/06/04 03:00:57;;;;;;;4.80;4.50;;;12.70;94.70;;;;;;4955465;28;20471;-59
2023/06/04 03:03:23;;;;;;;4.90;4.50;;;12.70;94.70;;;;;;4956194;29;20415;-60
2023/06/04 03:05:49;;;;;;;5.10;4.70;;;12.70;94.80;;;;;;4955130;29;20187;-59
2023/06/04 03:08:15;;;;;;;4.70;4.20;;;12.70;95.00;;;;;;4955966;28;20451;-60
2023/06/04 03:10:41;;;;;;;4.40;4.10;;;12.60;95.20;;;;;;4955673;28;20490;-60
2023/06/04 03:13:07;;;;;;;5.20;4.70;;;12.60;95.40;;;;;;4954957;28;20185;-60
2023/06/04 03:15:32;;;;;;;4.90;4.50;;;12.60;95.40;;;;;;4953409;29;20189;-60
2023/06/04 03:17:59;;;;;;;5.00;4.67;;;12.60;95.70;;;;;;4954277;28;20181;-59
2023/06/04 03:20:24;;;;;;;4.83;4.53;;;12.60;95.60;;;;;;4955561;28;20557;-60
2023/06/04 03:22:52;;;;;;;5.13;4.77;;;12.60;95.70;;;;;;4954893;28;20404;-59
2023/06/04 03:25:17;;;;;;;5.00;4.70;;;12.60;95.80;;;;;;4955755;28;20544;-60
2023/06/04 03:27:43;;;;;;;4.70;4.40;;;12.60;96.10;;;;;;4955445;29;20406;-60
2023/06/04 03:30:10;;;;;;;4.57;4.27;;;12.50;96.00;;;;;;4954531;29;20265;-60
2023/06/04 03:32:36;;;;;;;4.97;4.60;;;12.50;95.90;;;;;;4955196;29;20179;-60
2023/06/04 03:35:03;;;;;;;4.63;4.33;;;12.50;95.60;;;;;;4954486;28;20495;-59
2023/06/04 03:37:28;;;;;;;4.70;4.30;;;12.50;95.80;;;;;;4955274;28;20206;-60
2023/06/04 03:39:54;;;;;;;4.30;4.00;;;12.40;96.00;;;;;;4953349;29;20454;-59
2023/06/04 03:42:20;;;;;;;4.70;4.40;;;12.50;96.20;;;;;;4955412;29;20175;-60
2023/06/04 03:44:46;;;;;;;4.40;4.10;;;12.50;96.20;;;;;;4955490;29;20966;-60
2023/06/04 03:47:12;;;;;;;5.17;4.77;;;12.50;96.00;;;;;;4953544;28;20548;-60
2023/06/04 03:49:37;;;;;;;4.60;4.33;;;12.50;96.20;;;;;;4955088;29;20750;-60
2023/06/04 03:52:03;;;;;;;4.53;4.23;;;12.50;96.30;;;;;;4954243;29;20653;-60
2023/06/04 03:54:30;;;;;;;7.33;4.43;;;12.40;95.70;;;;;;4954946;28;20644;-60
2023/06/04 03:56:56;;;;;;;4.70;4.40;;;12.40;95.90;;;;;;4953024;29;20407;-60
2023/06/04 03:59:22;;;;;;;4.30;4.00;;;12.40;96.30;;;;;;4954784;29;20914;-60
2023/06/04 04:01:48;;;;;;;4.70;4.40;;;12.40;96.60;;;;;;4954579;29;20263;-60
2023/06/04 04:04:14;;;;;;;4.50;4.10;;;12.50;96.60;;;;;;4954553;29;20180;-60
2023/06/04 04:06:40;;;;;;;4.40;4.10;;;12.50;96.60;;;;;;4954657;28;20415;-60
2023/06/04 04:09:06;;;;;;;4.60;4.30;;;12.50;96.60;;;;;;4953750;28;20485;-60
2023/06/04 04:11:32;;;;;;;4.43;4.13;;;12.50;96.60;;;;;;4954702;28;20186;-60
2023/06/04 04:13:58;;;;;;;5.27;4.73;;;12.50;96.50;;;;;;4954105;29;20415;-59
2023/06/04 04:16:24;;;;;;;4.37;4.07;;;12.50;96.30;;;;;;4953975;28;20186;-60
2023/06/04 04:18:50;;;;;;;4.60;4.20;;;12.50;95.90;;;;;;4954325;28;20245;-59
2023/06/04 04:21:16;;;;;;;4.40;4.10;;;12.40;95.50;;;;;;4953127;29;20408;-60
2023/06/04 04:23:44;;;;;;;4.27;4.07;;;12.40;95.20;;;;;;4954210;28;20886;-60
2023/06/04 04:26:16;;;;;;;4.67;4.37;;;12.40;95.30;;;;;;4953779;29;20391;-60
2023/06/04 04:28:43;;;;;;;4.43;4.13;;;12.40;95.50;;;;;;4954062;28;20424;-60
2023/06/04 04:31:09;;;;;;;4.77;4.47;;;12.40;95.50;;;;;;4953458;28;21031;-59
2023/06/04 04:33:39;;;;;;;4.90;4.50;;;12.40;95.70;;;;;;4954338;28;20447;-60
2023/06/04 04:36:08;;;;;;;4.63;4.33;;;12.50;95.70;;;;;;4953532;28;20926;-60
2023/06/04 04:38:34;;;;;;;4.40;4.10;;;12.50;95.60;;;;;;4954099;29;20940;-60
2023/06/04 04:41:00;;;;;;;4.83;4.40;;;12.60;95.70;;;;;;4953668;29;20427;-60
2023/06/04 04:43:30;;;;;;;4.90;4.40;;;12.70;96.00;;;;;;4954201;29;20482;-60
2023/06/04 04:45:56;;;;;;;5.17;4.67;;;12.70;95.70;;;;;;4951044;29;21006;-59
2023/06/04 04:48:21;;;;;;;5.03;4.70;;;12.70;95.60;;;;;;4952971;28;20519;-60
2023/06/04 04:50:47;;;;;;;7.27;6.57;;;12.70;95.90;;;;;;4954122;29;20448;-60
2023/06/04 04:53:15;;;;;;;7.00;5.57;;;12.70;96.00;;;;;;4953664;29;20215;-61
2023/06/04 04:55:41;;;;;;;5.10;4.70;;;12.70;96.10;;;;;;4954193;29;20183;-60
2023/06/04 04:58:07;;;;;;;5.83;5.30;;;12.80;96.10;;;;;;4952705;29;20775;-59
2023/06/04 05:00:32;;;;;;;6.60;4.57;;;12.80;95.90;;;;;;4940835;28;20196;-60
2023/06/04 05:02:58;;;;;;;4.50;4.20;;;12.80;96.90;;;;;;4935381;29;20267;-60
2023/06/04 05:05:24;;;;;;;4.67;4.37;;;12.80;96.40;;;;;;4954507;28;20259;-60
2023/06/04 05:07:49;;;;;;;7.00;4.97;;;12.80;96.00;;;;;;4953206;29;20247;-60
2023/06/04 05:10:17;;;;;;;7.33;6.63;;;12.80;96.10;;;;;;4951821;29;20209;-62
2023/06/04 05:12:54;;;;;;;8.23;6.43;;;12.90;96.10;;;;;;4952099;29;20454;-62
2023/06/04 05:15:21;;;;;;;5.40;4.93;;;12.90;95.90;;;;;;4944864;29;20437;-62
2023/06/04 05:17:46;;;;;;;5.57;5.07;;;13.00;95.80;;;;;;4953690;29;20436;-62
2023/06/04 05:20:14;;;;;;;5.50;5.00;;;13.00;95.80;;;;;;4953008;29;20454;-62
2023/06/04 05:22:41;;;;;;;4.97;4.67;;;13.20;96.00;;;;;;4953983;28;20412;-62
2023/06/04 05:25:08;;;;;;;5.57;5.07;;;13.30;96.20;;;;;;4953750;29;20761;-62
2023/06/04 05:27:35;;;;;;;8.70;4.97;;;13.40;96.40;;;;;;4954392;28;20602;-62
2023/06/04 05:30:03;;;;;;;5.20;4.80;;;13.60;95.90;;;;;;4952071;29;20461;-62
2023/06/04 05:32:30;;;;;;;5.70;5.20;;;13.60;95.50;;;;;;4953771;28;20918;-62
2023/06/04 05:34:57;;;;;;;5.40;5.00;;;13.80;95.50;;;;;;4952480;29;20409;-62
2023/06/04 05:37:23;;;;;;;5.33;4.93;;;13.90;95.20;;;;;;4954200;28;20441;-62
2023/06/04 05:39:50;;;;;;;4.80;4.50;;;14.00;94.80;;;;;;4953135;28;20979;-62
2023/06/04 05:42:16;;;;;;;6.87;5.63;;;14.10;94.90;;;;;;4953637;28;20174;-62
2023/06/04 05:44:41;;;;;;;16.33;13.00;;;14.20;94.60;;;;;;4952914;28;20551;-62
2023/06/04 05:47:07;;;;;;;11.70;9.17;;;14.20;94.10;;;;;;4953331;28;20433;-62
2023/06/04 05:49:36;;;;;;;5.70;5.20;;;14.20;94.50;;;;;;4952930;28;20618;-60
2023/06/04 05:52:02;;;;;;;6.60;5.90;;;14.20;94.30;;;;;;4950964;28;20514;-59
2023/06/04 05:54:29;;;;;;;5.97;4.87;;;14.20;94.10;;;;;;4951135;29;20423;-59
2023/06/04 05:56:55;;;;;;;6.37;5.80;;;14.20;93.50;;;;;;4952755;28;20432;-61
2023/06/04 05:59:20;;;;;;;5.60;5.20;;;14.20;93.30;;;;;;4951897;28;20528;-63
2023/06/04 06:01:47;;;;;;;5.33;4.90;;;14.20;93.60;;;;;;4947343;28;20524;-60
2023/06/04 06:04:13;;;;;;;5.70;5.23;;;14.20;93.50;;;;;;4956008;28;20185;-60
2023/06/04 06:06:39;;;;;;;5.73;5.23;;;14.30;93.50;;;;;;4957641;28;20415;-60
2023/06/04 06:09:05;;;;;;;5.00;4.60;;;14.30;94.20;;;;;;4955655;29;20454;-60
2023/06/04 06:11:31;;;;;;;8.33;7.63;;;14.30;94.40;;;;;;4952524;28;20186;-60
2023/06/04 06:13:57;;;;;;;6.53;6.00;;;14.40;94.40;;;;;;4955889;29;20449;-60
2023/06/04 06:16:22;;;;;;;5.43;5.03;;;14.40;94.20;;;;;;4955249;28;20186;-59
2023/06/04 06:18:48;;;;;;;6.00;5.50;;;14.30;94.20;;;;;;4954079;28;20199;-59
2023/06/04 06:21:14;;;;;;;4.97;4.57;;;14.40;94.30;;;;;;4955199;28;20270;-61
2023/06/04 06:23:40;;;;;;;7.50;7.00;;;14.50;94.00;;;;;;4956415;29;20200;-61
2023/06/04 06:26:08;;;;;;;7.57;7.07;;;14.50;94.00;;;;;;4955266;28;20182;-61
2023/06/04 06:28:35;;;;;;;5.80;5.50;;;14.50;93.70;;;;;;4955881;29;20775;-61
2023/06/04 06:31:02;;;;;;;6.20;5.80;;;14.50;93.90;;;;;;4956357;28;20447;-61
2023/06/04 06:33:27;;;;;;;4.87;4.57;;;14.60;93.60;;;;;;4955958;28;20945;-61
2023/06/04 06:35:54;;;;;;;5.70;5.30;;;14.70;93.20;;;;;;4955882;28;20415;-61
2023/06/04 06:38:19;;;;;;;5.80;5.40;;;14.80;93.40;;;;;;4955705;28;20211;-61
2023/06/04 06:40:45;;;;;;;5.27;4.80;;;14.90;93.80;;;;;;4956290;29;20444;-61
2023/06/04 06:43:11;;;;;;;5.90;5.50;;;15.00;93.80;;;;;;4956094;29;20608;-61
2023/06/04 06:45:37;;;;;;;6.30;5.30;;;15.10;92.30;;;;;;4953855;29;20196;-61
2023/06/04 06:48:03;;;;;;;5.77;5.17;;;15.10;92.10;;;;;;4955356;29;20192;-61
2023/06/04 06:50:29;;;;;;;5.03;4.70;;;15.20;91.50;;;;;;4956550;29;20445;-61
2023/06/04 06:52:55;;;;;;;5.20;4.80;;;15.20;90.70;;;;;;4956802;28;20467;-61
2023/06/04 06:55:21;;;;;;;5.40;5.00;;;15.10;90.00;;;;;;4955974;29;20446;-61
2023/06/04 06:57:47;;;;;;;5.03;4.73;;;15.20;90.70;;;;;;4955759;29;20183;-60
2023/06/04 07:00:13;;;;;;;5.07;4.77;;;15.40;90.10;;;;;;4955105;29;20188;-60
2023/06/04 07:02:38;;;;;;;5.60;4.90;;;15.50;88.50;;;;;;4955949;29;20189;-61
2023/06/04 07:05:04;;;;;;;4.87;4.57;;;15.60;86.60;;;;;;4953910;29;20432;-59
2023/06/04 07:07:31;;;;;;;5.30;5.00;;;15.60;83.70;;;;;;4956535;29;20181;-60
2023/06/04 07:09:56;;;;;;;5.50;5.10;;;15.80;87.50;;;;;;4955981;28;20960;-60
2023/06/04 07:12:22;;;;;;;5.13;4.70;;;16.00;88.10;;;;;;4950927;28;20448;-60
2023/06/04 07:14:48;;;;;;;5.57;5.17;;;16.10;89.00;;;;;;4942851;29;20204;-60
2023/06/04 07:17:13;;;;;;;4.87;4.57;;;16.20;85.00;;;;;;4936083;29;20169;-60
2023/06/04 07:19:39;;;;;;;5.10;4.60;;;16.40;88.10;;;;;;4940562;29;20184;-60
2023/06/04 07:22:05;;;;;;;4.57;4.33;;;16.60;89.40;;;;;;4955377;28;20185;-60
2023/06/04 07:24:31;;;;;;;4.87;4.47;;;16.70;88.00;;;;;;4954733;29;20427;-60
2023/06/04 07:26:57;;;;;;;4.77;4.47;;;16.90;85.60;;;;;;4955264;29;20205;-60
2023/06/04 07:29:22;;;;;;;4.73;4.33;;;17.10;85.70;;;;;;4954291;29;20204;-60
2023/06/04 07:31:48;;;;;;;4.53;4.27;;;17.30;83.70;;;;;;4955402;29;20193;-61
2023/06/04 07:34:14;;;;;;;4.80;4.50;;;17.40;78.10;;;;;;4953775;29;20189;-60
2023/06/04 07:36:40;;;;;;;4.50;4.20;;;17.60;76.80;;;;;;4955736;28;20173;-59
2023/06/04 07:39:07;;;;;;;4.40;4.10;;;17.70;74.60;;;;;;4952656;29;20432;-59
2023/06/04 07:41:33;;;;;;;4.40;4.10;;;17.70;69.90;;;;;;4953197;29;20629;-59
2023/06/04 07:43:59;;;;;;;5.30;5.00;;;17.70;73.70;;;;;;4954519;28;20560;-59
2023/06/04 07:46:25;;;;;;;7.57;6.80;;;17.90;75.30;;;;;;4950973;29;20424;-64
2023/06/04 07:48:50;;;;;;;82.80;54.27;;;18.10;80.90;;;;;;4954145;28;20185;-59
2023/06/04 07:51:18;;;;;;;35.47;27.77;;;18.30;82.30;;;;;;4953019;29;20185;-59
2023/06/04 07:53:44;;;;;;;15.70;12.33;;;18.50;72.70;;;;;;4950188;28;20261;-59
2023/06/04 07:56:10;;;;;;;4.27;4.07;;;18.50;70.00;;;;;;4942916;29;20413;-59
2023/06/04 07:58:36;;;;;;;4.90;4.60;;;18.50;68.80;;;;;;4945307;29;20406;-59
2023/06/04 08:01:01;;;;;;;5.63;5.27;;;18.50;67.50;;;;;;4944687;29;20232;-58
2023/06/04 08:03:27;;;;;;;4.27;3.93;;;18.20;67.70;;;;;;4947283;29;20216;-59
2023/06/04 08:05:53;;;;;;;4.53;4.20;;;18.20;70.90;;;;;;4949387;29;20428;-59
2023/06/04 08:08:19;;;;;;;5.93;5.53;;;18.40;73.00;;;;;;4946094;28;20201;-59
2023/06/04 08:10:45;;;;;;;5.00;4.70;;;18.60;75.90;;;;;;4944287;28;20283;-59
2023/06/04 08:13:11;;;;;;;5.17;4.87;;;18.70;70.10;;;;;;4943680;28;20460;-59
2023/06/04 08:15:36;;;;;;;5.10;4.80;;;18.70;70.10;;;;;;4944990;29;20913;-58
2023/06/04 08:18:02;;;;;;;5.10;4.63;;;18.80;69.40;;;;;;4948307;29;20198;-59
2023/06/04 08:20:28;;;;;;;5.77;5.27;;;18.80;71.80;;;;;;4943724;28;20186;-59
2023/06/04 08:22:54;;;;;;;5.10;4.60;;;19.10;73.70;;;;;;4945058;28;20460;-59
2023/06/04 08:25:20;;;;;;;12.33;11.00;;;19.20;72.80;;;;;;4945209;29;20255;-59
2023/06/04 08:27:45;;;;;;;6.17;5.57;;;19.40;75.30;;;;;;4945328;29;20178;-59
2023/06/04 08:30:11;;;;;;;5.70;5.20;;;19.70;73.30;;;;;;4944868;28;20448;-60
2023/06/04 08:32:37;;;;;;;5.00;4.60;;;20.00;73.00;;;;;;4948169;29;20177;-59
2023/06/04 08:35:04;;;;;;;10.77;9.67;;;20.10;71.40;;;;;;4945452;29;20173;-59
2023/06/04 08:37:30;;;;;;;5.77;5.37;;;20.40;74.10;;;;;;4943970;28;20178;-59
2023/06/04 08:39:56;;;;;;;4.90;4.60;;;20.60;70.70;;;;;;4943837;29;20410;-59
2023/06/04 08:42:30;;;;;;;5.57;5.17;;;20.70;71.70;;;;;;4935875;29;20647;-59
2023/06/04 08:44:57;;;;;;;5.57;5.17;;;20.70;66.60;;;;;;4935705;29;20200;-59
2023/06/04 08:47:28;;;;;;;8.60;5.60;;;20.60;67.00;;;;;;4934932;29;20430;-59
2023/06/04 08:50:01;;;;;;;8.50;7.73;;;20.60;68.30;;;;;;4935189;29;20461;-59
2023/06/04 08:52:27;;;;;;;6.70;6.00;;;20.70;72.10;;;;;;4934973;29;20402;-59
2023/06/04 08:54:54;;;;;;;6.60;6.10;;;20.70;63.40;;;;;;4935441;29;20420;-59
2023/06/04 08:57:21;;;;;;;11.37;10.17;;;20.60;64.00;;;;;;4934811;29;20437;-59
2023/06/04 08:59:47;;;;;;;7.47;6.53;;;20.90;70.20;;;;;;4935430;29;20422;-58
2023/06/04 09:02:14;;;;;;;6.27;5.77;;;21.00;70.10;;;;;;4934809;29;20778;-59
2023/06/04 09:04:41;;;;;;;35.83;30.50;;;21.30;69.10;;;;;;4934164;29;20517;-59
2023/06/04 09:07:10;;;;;;;19.10;15.93;;;21.50;70.80;;;;;;4935003;29;20901;-60
2023/06/04 09:09:38;;;;;;;11.53;10.27;;;21.70;69.90;;;;;;4935219;29;20468;-59
2023/06/04 09:12:10;;;;;;;10.20;9.40;;;21.90;67.50;;;;;;4935347;29;20439;-59
2023/06/04 09:14:36;;;;;;;8.10;7.40;;;22.10;68.30;;;;;;4935327;29;20409;-59
2023/06/04 09:17:01;;;;;;;10.83;7.03;;;22.20;65.00;;;;;;4935239;29;20802;-59
2023/06/04 09:19:27;;;;;;;7.80;7.10;;;22.20;62.20;;;;;;4934651;29;20268;-59
2023/06/04 09:22:02;;;;;;;6.53;6.10;;;22.10;59.10;;;;;;4934944;29;20661;-59
2023/06/04 09:24:52;;;;;;;7.00;6.40;;;21.80;58.00;;;;;;4934583;29;20465;-59
2023/06/04 09:27:22;;;;;;;6.43;6.00;;;21.60;57.90;;;;;;4934624;29;20897;-60
2023/06/04 09:29:59;;;;;;;7.07;6.57;;;21.60;58.10;;;;;;4935138;29;20500;-59
2023/06/04 09:32:30;;;;;;;6.93;6.37;;;21.70;59.90;;;;;;4934601;29;20394;-59
2023/06/04 09:35:08;;;;;;;8.30;6.60;;;21.90;60.70;;;;;;4936036;29;20844;-59
2023/06/04 09:37:35;;;;;;;7.37;6.77;;;22.00;59.40;;;;;;4938541;29;20403;-59
2023/06/04 09:40:01;;;;;;;7.10;6.60;;;22.00;58.80;;;;;;4938713;29;20421;-59
2023/06/04 09:42:28;;;;;;;6.57;6.07;;;22.10;59.70;;;;;;4937902;29;20484;-59
2023/06/04 09:44:54;;;;;;;6.90;6.23;;;22.10;59.00;;;;;;4919389;29;20782;-59
2023/06/04 09:47:20;;;;;;;7.20;6.47;;;22.00;58.20;;;;;;4919060;29;20429;-60
2023/06/04 09:49:47;;;;;;;6.70;6.30;;;22.00;58.20;;;;;;4934197;29;20201;-59
2023/06/04 09:52:14;;;;;;;6.60;6.10;;;22.00;56.70;;;;;;4918920;29;20306;-60
2023/06/04 09:54:41;;;;;;;5.80;5.40;;;22.10;58.20;;;;;;4919157;29;20899;-59
2023/06/04 09:57:21;;;;;;;7.00;6.00;;;22.20;55.50;;;;;;4919452;29;20414;-59
2023/06/04 09:59:50;;;;;;;6.07;5.67;;;22.20;57.60;;;;;;4919387;29;20433;-59
2023/06/04 10:02:20;;;;;;;6.43;5.83;;;22.30;58.60;;;;;;4918705;29;20403;-59
2023/06/04 10:04:54;;;;;;;6.67;6.20;;;22.30;57.50;;;;;;4919216;29;20755;-60
2023/06/04 10:07:20;;;;;;;5.90;5.50;;;22.20;57.50;;;;;;4918757;29;20867;-59
2023/06/04 10:09:48;;;;;;;6.70;6.20;;;22.20;56.40;;;;;;4918669;29;20522;-59
2023/06/04 10:12:16;;;;;;;7.33;6.70;;;22.30;57.10;;;;;;4918767;29;20474;-59
2023/06/04 10:14:51;;;;;;;7.40;6.87;;;22.40;58.00;;;;;;4918893;29;20918;-60
2023/06/04 10:17:18;;;;;;;7.00;5.50;;;22.30;57.70;;;;;;4918793;29;20406;-59
2023/06/04 10:19:44;;;;;;;5.77;5.27;;;22.10;57.30;;;;;;4919122;29;20808;-59
2023/06/04 10:22:14;;;;;;;6.20;5.57;;;21.90;57.60;;;;;;4918661;29;20466;-66
2023/06/04 10:24:40;;;;;;;5.40;4.90;;;21.90;57.80;;;;;;4919212;29;20850;-59
2023/06/04 10:27:10;;;;;;;5.40;5.00;;;22.10;58.30;;;;;;4919003;29;20497;-59
2023/06/04 10:29:37;;;;;;;4.90;4.60;;;22.00;58.00;;;;;;4918852;29;20450;-59
2023/06/04 10:32:03;;;;;;;5.00;4.60;;;22.20;58.30;;;;;;4918813;29;20429;-59
2023/06/04 10:34:30;;;;;;;5.43;5.13;;;22.40;58.50;;;;;;4918179;29;20411;-59
2023/06/04 10:36:56;;;;;;;5.80;5.30;;;22.70;58.30;;;;;;4918830;29;20410;-59
2023/06/04 10:39:29;;;;;;;5.13;4.67;;;22.50;57.20;;;;;;4918130;29;20405;-59
2023/06/04 10:42:02;;;;;;;5.53;5.13;;;22.30;57.30;;;;;;4917421;29;20411;-59
2023/06/04 10:44:30;;;;;;;5.80;5.40;;;22.30;57.20;;;;;;4933273;29;20561;-59
2023/06/04 10:46:57;;;;;;;5.90;5.50;;;22.30;57.10;;;;;;4936721;29;20449;-59
2023/06/04 10:49:31;;;;;;;5.97;5.47;;;22.20;57.20;;;;;;4936236;29;20540;-59
2023/06/04 10:52:02;;;;;;;5.60;5.20;;;22.40;58.40;;;;;;4937358;29;20402;-59
2023/06/04 10:54:29;;;;;;;5.27;4.87;;;22.50;57.40;;;;;;4936882;29;20402;-59
2023/06/04 10:56:55;;;;;;;4.87;4.57;;;22.60;57.80;;;;;;4937498;29;20774;-59
2023/06/04 10:59:22;;;;;;;6.00;5.60;;;22.90;58.40;;;;;;4936809;29;20418;-60
2023/06/04 11:01:47;;;;;;;5.33;5.03;;;22.90;56.80;;;;;;4937203;29;20879;-59
2023/06/04 11:04:26;;;;;;;5.43;5.13;;;22.90;56.60;;;;;;4936692;29;20409;-63
2023/06/04 11:07:03;;;;;;;5.60;5.30;;;23.00;57.10;;;;;;4937186;29;20328;-59
2023/06/04 11:09:29;;;;;;;5.13;4.90;;;23.10;58.10;;;;;;4936446;29;20457;-59
2023/06/04 11:11:59;;;;;;;5.53;5.20;;;23.20;56.30;;;;;;4936987;29;20406;-59
2023/06/04 11:14:24;;;;;;;5.00;4.60;;;23.30;56.70;;;;;;4936344;29;20421;-59
2023/06/04 11:16:50;;;;;;;5.07;4.60;;;23.10;56.30;;;;;;4937220;29;20405;-59
2023/06/04 11:19:16;;;;;;;5.60;5.30;;;23.20;57.10;;;;;;4936386;29;20185;-60
2023/06/04 11:21:41;;;;;;;5.30;5.00;;;23.00;56.60;;;;;;4937037;29;20190;-59
2023/06/04 11:24:07;;;;;;;5.43;5.13;;;22.90;58.50;;;;;;4936987;29;20174;-60
2023/06/04 11:26:35;;;;;;;5.37;5.03;;;23.10;58.20;;;;;;4936137;29;20645;-60
2023/06/04 11:29:01;;;;;;;5.63;5.33;;;23.30;56.90;;;;;;4936862;29;20410;-60
2023/06/04 11:31:27;;;;;;;5.60;5.17;;;23.40;56.90;;;;;;4936033;29;20489;-60
2023/06/04 11:33:53;;;;;;;5.40;5.10;;;23.40;56.70;;;;;;4936692;29;20410;-60
2023/06/04 11:36:27;;;;;;;4.97;4.77;;;23.40;56.90;;;;;;4936099;29;20406;-60
2023/06/04 11:38:58;;;;;;;43.60;39.20;;;23.20;56.10;;;;;;4936552;29;20186;-60
2023/06/04 11:41:29;;;;;;;16.33;14.63;;;23.20;57.90;;;;;;4936151;29;20484;-60
2023/06/04 11:43:56;;;;;;;8.80;8.10;;;23.30;55.80;;;;;;4936620;29;20469;-60
2023/06/04 11:46:22;;;;;;;5.47;4.80;;;23.00;55.60;;;;;;4935821;29;20425;-60
2023/06/04 11:48:51;;;;;;;5.83;5.43;;;23.00;54.80;;;;;;4935436;29;20940;-60
2023/06/04 11:51:17;;;;;;;5.27;4.87;;;23.10;55.10;;;;;;4934488;29;20467;-60
2023/06/04 11:53:43;;;;;;;5.17;4.90;;;23.00;53.30;;;;;;4936330;29;20417;-60
2023/06/04 11:56:09;;;;;;;6.07;5.67;;;23.00;54.00;;;;;;4936370;29;20174;-60
2023/06/04 11:58:35;;;;;;;5.40;5.10;;;23.10;55.60;;;;;;4934743;29;20625;-60
2023/06/04 12:01:01;;;;;;;5.30;5.00;;;23.30;56.70;;;;;;4936216;29;20461;-60
2023/06/04 12:03:38;;;;;;;5.40;5.00;;;23.50;55.80;;;;;;4935628;29;20178;-60
2023/06/04 12:06:11;;;;;;;5.13;4.93;;;23.20;55.90;;;;;;4935880;29;20577;-60
2023/06/04 12:08:49;;;;;;;4.77;4.37;;;23.20;57.30;;;;;;4935513;29;20406;-60
2023/06/04 12:11:34;;;;;;;4.87;4.53;;;23.30;55.10;;;;;;4935998;29;20548;-60
2023/06/04 12:14:05;;;;;;;4.27;4.07;;;23.30;55.20;;;;;;4935495;29;20433;-60
2023/06/04 12:16:31;;;;;;;5.30;4.80;;;23.20;56.20;;;;;;4933621;29;20787;-60
2023/06/04 12:19:09;;;;;;;4.73;4.47;;;23.30;55.40;;;;;;4935693;29;20773;-60
2023/06/04 12:21:35;;;;;;;5.27;4.90;;;23.30;55.60;;;;;;4934039;29;20920;-60
2023/06/04 12:24:15;;;;;;;5.30;4.27;;;23.10;55.20;;;;;;4935867;29;20409;-60
2023/06/04 12:26:43;;;;;;;5.27;4.87;;;23.00;56.50;;;;;;4935543;29;20485;-60
2023/06/04 12:29:14;;;;;;;4.70;4.27;;;23.10;55.60;;;;;;4934552;29;20409;-60
2023/06/04 12:31:41;;;;;;;5.43;5.00;;;23.10;55.30;;;;;;4935006;29;20516;-60
2023/06/04 12:34:07;;;;;;;4.37;4.10;;;23.10;57.00;;;;;;4935695;29;20410;-60
2023/06/04 12:36:34;;;;;;;4.10;3.90;;;23.20;55.70;;;;;;4934680;29;20917;-60
2023/06/04 12:39:02;;;;;;;4.20;3.90;;;23.40;55.60;;;;;;4936642;29;20417;-59
2023/06/04 12:41:29;;;;;;;6.27;5.90;;;23.40;54.90;;;;;;4954064;28;20404;-60
2023/06/04 12:43:56;;;;;;;5.07;4.70;;;23.20;55.40;;;;;;4954557;28;20480;-59
2023/06/04 12:46:22;;;;;;;5.30;4.90;;;23.00;54.80;;;;;;4968957;28;20787;-59